createdAt,value
2022-11-27T00:01:47.630Z,6.60
2022-11-27T00:04:15.775Z,6.60
2022-11-27T00:06:43.941Z,6.60
2022-11-27T00:09:16.206Z,6.60
2022-11-27T00:11:44.898Z,6.60
2022-11-27T00:14:14.997Z,6.60
2022-11-27T00:16:43.081Z,6.50
2022-11-27T00:19:11.442Z,6.50
2022-11-27T00:21:39.725Z,6.50
2022-11-27T00:24:08.702Z,6.50
2022-11-27T00:26:39.567Z,6.50
2022-11-27T00:29:07.884Z,6.50
2022-11-27T00:31:37.895Z,6.50
2022-11-27T00:34:07.415Z,6.50
2022-11-27T00:36:35.963Z,6.50
2022-11-27T00:39:04.716Z,6.50
2022-11-27T00:41:32.728Z,6.50
2022-11-27T00:44:00.704Z,6.50
2022-11-27T00:46:32.710Z,6.50
2022-11-27T00:49:04.368Z,6.50
2022-11-27T00:51:32.594Z,6.50
2022-11-27T00:54:00.873Z,6.50
2022-11-27T00:56:29.907Z,6.40
2022-11-27T00:58:58.297Z,6.40
2022-11-27T01:01:27.753Z,6.40
2022-11-27T01:03:56.243Z,6.40
2022-11-27T01:06:25.799Z,6.40
2022-11-27T01:08:55.055Z,6.40
2022-11-27T01:11:25.633Z,6.40
2022-11-27T01:13:54.022Z,6.40
2022-11-27T01:16:22.967Z,6.30
2022-11-27T01:18:51.693Z,6.30
2022-11-27T01:21:20.427Z,6.30
2022-11-27T01:23:50.373Z,6.30
2022-11-27T01:26:19.251Z,6.20
2022-11-27T01:28:47.600Z,6.20
2022-11-27T01:31:16.663Z,6.20
2022-11-27T01:33:44.994Z,6.20
2022-11-27T01:36:13.865Z,6.20
2022-11-27T01:38:42.490Z,6.10
2022-11-27T01:41:14.613Z,6.10
2022-11-27T01:43:45.359Z,6.00
2022-11-27T01:46:26.239Z,6.00
2022-11-27T01:48:55.169Z,6.00
2022-11-27T01:51:24.049Z,5.90
2022-11-27T01:53:52.943Z,5.90
2022-11-27T01:56:22.878Z,5.90
2022-11-27T01:58:51.246Z,5.90
2022-11-27T02:01:21.742Z,5.80
2022-11-27T02:03:49.788Z,5.80
2022-11-27T02:06:17.770Z,5.80
2022-11-27T02:08:45.915Z,5.80
2022-11-27T02:11:16.494Z,5.70
2022-11-27T02:13:48.060Z,5.70
2022-11-27T02:16:21.199Z,5.70
2022-11-27T02:18:54.069Z,5.60
2022-11-27T02:21:25.778Z,5.60
2022-11-27T02:23:57.431Z,5.60
2022-11-27T02:26:44.660Z,5.60
2022-11-27T02:29:14.618Z,5.60
2022-11-27T02:31:45.638Z,5.50
2022-11-27T02:34:18.203Z,5.50
2022-11-27T02:36:49.942Z,5.50
2022-11-27T02:39:22.603Z,5.50
2022-11-27T02:41:55.640Z,5.40
2022-11-27T02:44:27.628Z,5.40
2022-11-27T02:46:59.050Z,5.40
2022-11-27T02:49:33.167Z,5.40
2022-11-27T02:52:02.395Z,5.30
2022-11-27T02:54:31.419Z,5.40
2022-11-27T02:57:01.801Z,5.30
2022-11-27T02:59:32.457Z,5.30
2022-11-27T03:02:02.146Z,5.30
2022-11-27T03:04:34.379Z,5.30
2022-11-27T03:07:05.131Z,5.30
2022-11-27T03:09:35.478Z,5.20
2022-11-27T03:12:04.290Z,5.20
2022-11-27T03:14:34.650Z,5.20
2022-11-27T03:17:07.070Z,5.20
2022-11-27T03:19:40.239Z,5.20
2022-11-27T03:22:08.211Z,5.20
2022-11-27T03:24:36.971Z,5.20
2022-11-27T03:27:05.365Z,5.20
2022-11-27T03:29:37.844Z,5.20
2022-11-27T03:32:06.298Z,5.20
2022-11-27T03:34:34.554Z,5.20
2022-11-27T03:37:05.462Z,5.10
2022-11-27T03:39:34.110Z,5.10
2022-11-27T03:42:06.284Z,5.10
2022-11-27T03:44:36.852Z,5.10
2022-11-27T03:47:11.704Z,5.00
2022-11-27T03:49:44.547Z,5.00
2022-11-27T03:52:15.541Z,5.00
2022-11-27T03:54:45.418Z,5.00
2022-11-27T03:57:16.140Z,4.90
2022-11-27T03:59:46.867Z,4.90
2022-11-27T04:02:17.882Z,4.90
2022-11-27T04:04:45.953Z,4.90
2022-11-27T04:07:17.057Z,4.90
2022-11-27T04:09:45.094Z,4.80
2022-11-27T04:12:13.067Z,4.80
2022-11-27T04:14:41.271Z,4.80
2022-11-27T04:17:12.120Z,4.80
2022-11-27T04:19:42.470Z,4.70
2022-11-27T04:22:10.448Z,4.70
2022-11-27T04:24:38.674Z,4.70
2022-11-27T04:27:06.847Z,4.70
2022-11-27T04:29:37.732Z,4.60
2022-11-27T04:32:05.926Z,4.60
2022-11-27T04:34:34.037Z,4.50
2022-11-27T04:37:03.452Z,4.60
2022-11-27T04:39:31.464Z,4.60
2022-11-27T04:41:59.488Z,4.50
2022-11-27T04:44:27.690Z,4.50
2022-11-27T04:46:55.710Z,4.50
2022-11-27T04:49:23.775Z,4.50
2022-11-27T04:51:51.800Z,4.40
2022-11-27T04:54:23.595Z,4.40
2022-11-27T04:56:51.578Z,4.40
2022-11-27T04:59:19.629Z,4.40
2022-11-27T05:01:47.708Z,4.40
2022-11-27T05:04:18.808Z,4.40
2022-11-27T05:06:46.872Z,4.30
2022-11-27T05:09:14.877Z,4.40
2022-11-27T05:11:44.225Z,4.30
2022-11-27T05:14:19.910Z,4.30
2022-11-27T05:16:48.688Z,4.30
2022-11-27T05:19:17.798Z,4.30
2022-11-27T05:21:46.327Z,4.20
2022-11-27T05:24:14.852Z,4.20
2022-11-27T05:26:44.401Z,4.10
2022-11-27T05:29:12.643Z,4.10
2022-11-27T05:31:42.831Z,4.10
2022-11-27T05:34:11.005Z,4.10
2022-11-27T05:36:38.998Z,4.10
2022-11-27T05:39:07.685Z,4.10
2022-11-27T05:41:36.301Z,4.10
2022-11-27T05:44:05.920Z,4.10
2022-11-27T05:46:34.203Z,4.10
2022-11-27T05:49:02.368Z,4.10
2022-11-27T05:51:30.352Z,4.00
2022-11-27T05:53:58.491Z,4.10
2022-11-27T05:56:26.475Z,4.00
2022-11-27T05:58:54.613Z,4.10
2022-11-27T06:01:24.031Z,4.00
2022-11-27T06:03:52.170Z,4.00
2022-11-27T06:06:20.825Z,4.00
2022-11-27T06:08:49.105Z,4.00
2022-11-27T06:11:17.890Z,4.00
2022-11-27T06:13:46.274Z,3.90
2022-11-27T06:16:15.191Z,3.90
2022-11-27T06:18:44.879Z,4.00
2022-11-27T06:21:13.735Z,4.00
2022-11-27T06:23:47.473Z,3.90
2022-11-27T06:26:17.112Z,4.00
2022-11-27T06:28:45.166Z,3.90
2022-11-27T06:31:17.715Z,3.90
2022-11-27T06:33:50.150Z,3.90
2022-11-27T06:36:18.839Z,3.90
2022-11-27T06:38:47.014Z,3.80
2022-11-27T06:41:15.737Z,3.80
2022-11-27T06:43:44.090Z,3.80
2022-11-27T06:46:12.913Z,3.80
2022-11-27T06:48:41.004Z,3.80
2022-11-27T06:51:12.716Z,3.80
2022-11-27T06:53:41.040Z,3.70
2022-11-27T06:56:10.286Z,3.70
2022-11-27T06:58:38.446Z,3.70
2022-11-27T07:01:08.121Z,3.70
2022-11-27T07:03:36.466Z,3.70
2022-11-27T07:06:05.854Z,4.10
2022-11-27T07:08:35.727Z,3.70
2022-11-27T07:11:03.880Z,3.70
2022-11-27T07:13:32.653Z,3.70
2022-11-27T07:16:01.531Z,3.70
2022-11-27T07:18:29.882Z,3.70
2022-11-27T07:20:59.670Z,3.70
2022-11-27T07:23:27.634Z,3.70
2022-11-27T07:25:56.962Z,3.70
2022-11-27T07:28:25.008Z,3.70
2022-11-27T07:30:57.584Z,3.80
2022-11-27T07:33:25.689Z,3.80
2022-11-27T07:35:58.991Z,3.80
2022-11-27T07:38:27.143Z,3.80
2022-11-27T07:40:55.066Z,3.80
2022-11-27T07:43:24.511Z,3.90
2022-11-27T07:45:52.539Z,4.10
2022-11-27T07:48:20.996Z,3.90
2022-11-27T07:50:49.082Z,3.90
2022-11-27T07:53:17.979Z,3.90
2022-11-27T07:55:45.902Z,3.90
2022-11-27T07:58:15.887Z,3.90
2022-11-27T08:00:45.262Z,3.90
2022-11-27T08:03:13.330Z,3.90
2022-11-27T08:05:41.311Z,3.80
2022-11-27T08:08:09.339Z,3.80
2022-11-27T08:10:37.861Z,3.80
2022-11-27T08:13:08.097Z,3.80
2022-11-27T08:15:37.457Z,3.80
2022-11-27T08:18:19.042Z,3.80
2022-11-27T08:20:47.017Z,3.80
2022-11-27T08:23:14.980Z,3.80
2022-11-27T08:25:43.240Z,3.80
2022-11-27T08:28:11.458Z,3.90
2022-11-27T08:30:39.567Z,3.90
2022-11-27T08:33:08.049Z,3.90
2022-11-27T08:35:37.385Z,4.00
2022-11-27T08:38:05.556Z,4.00
2022-11-27T08:40:33.533Z,4.00
2022-11-27T08:43:01.511Z,4.00
2022-11-27T08:45:29.538Z,4.10
2022-11-27T08:47:57.634Z,4.10
2022-11-27T08:50:25.703Z,4.20
2022-11-27T08:52:55.036Z,4.20
2022-11-27T08:55:23.039Z,4.20
2022-11-27T08:57:52.080Z,4.30
2022-11-27T09:00:26.380Z,4.30
2022-11-27T09:02:55.857Z,4.30
2022-11-27T09:05:24.231Z,4.30
2022-11-27T09:07:52.296Z,4.30
2022-11-27T09:10:21.840Z,4.30
2022-11-27T09:12:49.944Z,4.30
2022-11-27T09:15:18.522Z,4.40
2022-11-27T09:17:46.485Z,4.40
2022-11-27T09:20:16.229Z,4.40
2022-11-27T09:22:44.184Z,4.40
2022-11-27T09:25:12.112Z,4.40
2022-11-27T09:27:42.839Z,4.50
2022-11-27T09:30:11.475Z,4.50
2022-11-27T09:32:39.534Z,4.50
2022-11-27T09:35:08.396Z,4.60
2022-11-27T09:37:36.427Z,4.60
2022-11-27T09:40:04.660Z,4.70
2022-11-27T09:42:38.602Z,4.70
2022-11-27T09:45:15.077Z,4.70
2022-11-27T09:47:44.874Z,4.80
2022-11-27T09:50:14.862Z,4.80
2022-11-27T09:52:44.173Z,4.80
2022-11-27T09:55:15.770Z,4.90
2022-11-27T09:57:47.415Z,4.90
2022-11-27T10:00:18.507Z,5.20
2022-11-27T10:02:46.681Z,4.90
2022-11-27T10:05:17.164Z,5.00
2022-11-27T10:08:06.326Z,5.00
2022-11-27T10:10:41.071Z,5.00
2022-11-27T10:13:15.725Z,5.10
2022-11-27T10:15:49.134Z,5.10
2022-11-27T10:18:20.748Z,5.10
2022-11-27T10:20:50.616Z,5.20
2022-11-27T10:23:21.767Z,5.20
2022-11-27T10:25:51.147Z,5.20
2022-11-27T10:28:24.685Z,5.20
2022-11-27T10:30:55.414Z,5.30
2022-11-27T10:33:24.938Z,5.30
2022-11-27T10:35:53.404Z,5.30
2022-11-27T10:38:22.907Z,5.40
2022-11-27T10:40:54.592Z,5.40
2022-11-27T10:43:23.523Z,5.40
2022-11-27T10:45:53.720Z,5.50
2022-11-27T10:48:23.370Z,5.50
2022-11-27T10:50:51.368Z,5.50
2022-11-27T10:53:24.364Z,5.50
2022-11-27T10:55:57.924Z,5.60
2022-11-27T10:58:28.659Z,5.60
2022-11-27T11:01:03.364Z,5.60
2022-11-27T11:03:32.840Z,5.60
2022-11-27T11:06:19.938Z,5.70
2022-11-27T11:08:49.355Z,5.70
2022-11-27T11:11:26.216Z,5.70
2022-11-27T11:13:59.395Z,5.80
2022-11-27T11:16:34.758Z,5.80
2022-11-27T11:19:06.245Z,5.80
2022-11-27T11:21:35.450Z,5.90
2022-11-27T11:24:05.155Z,5.90
2022-11-27T11:26:34.064Z,5.90
2022-11-27T11:29:04.232Z,5.90
2022-11-27T11:31:34.579Z,5.90
2022-11-27T11:34:03.765Z,6.00
2022-11-27T11:36:33.261Z,6.00
2022-11-27T11:39:01.225Z,6.00
2022-11-27T11:41:37.477Z,6.00
2022-11-27T11:44:05.851Z,6.00
2022-11-27T11:46:36.761Z,6.00
2022-11-27T11:49:06.800Z,6.10
2022-11-27T11:51:49.608Z,6.10
2022-11-27T11:54:26.635Z,6.20
2022-11-27T11:56:57.831Z,6.20
2022-11-27T11:59:29.355Z,6.20
2022-11-27T12:02:03.806Z,6.20
2022-11-27T12:04:42.754Z,6.20
2022-11-27T12:07:19.753Z,6.30
2022-11-27T12:09:53.562Z,6.20
2022-11-27T12:12:30.655Z,6.20
2022-11-27T12:15:01.270Z,6.20
2022-11-27T12:17:35.905Z,6.30
2022-11-27T12:20:22.641Z,6.20
2022-11-27T12:23:07.730Z,6.30
2022-11-27T12:25:38.762Z,6.30
2022-11-27T12:28:12.819Z,6.30
2022-11-27T12:30:45.654Z,6.30
2022-11-27T12:33:29.182Z,6.30
2022-11-27T12:36:00.326Z,6.40
2022-11-27T12:38:38.690Z,6.40
2022-11-27T12:41:15.031Z,6.40
2022-11-27T12:43:45.994Z,6.40
2022-11-27T12:46:16.411Z,6.40
2022-11-27T12:48:47.407Z,6.40
2022-11-27T12:51:18.346Z,6.50
2022-11-27T12:53:48.754Z,6.40
2022-11-27T12:56:22.148Z,6.40
2022-11-27T12:59:12.574Z,6.60
2022-11-27T13:01:42.385Z,6.50
2022-11-27T13:04:18.165Z,6.50
2022-11-27T13:06:49.579Z,6.50
2022-11-27T13:09:21.339Z,6.50
2022-11-27T13:11:51.069Z,6.50
2022-11-27T13:14:20.716Z,6.50
2022-11-27T13:16:51.300Z,6.50
2022-11-27T13:19:23.747Z,6.50
2022-11-27T13:21:53.280Z,6.50
2022-11-27T13:24:21.898Z,6.50
2022-11-27T13:26:54.771Z,6.50
2022-11-27T13:29:25.775Z,6.40
2022-11-27T13:31:55.704Z,6.40
2022-11-27T13:34:25.526Z,6.40
2022-11-27T13:36:57.785Z,6.50
2022-11-27T13:39:26.795Z,6.40
2022-11-27T13:42:03.353Z,6.50
2022-11-27T13:44:31.925Z,6.40
2022-11-27T13:47:01.434Z,6.50
2022-11-27T13:49:31.805Z,6.40
2022-11-27T13:52:11.677Z,6.40
2022-11-27T13:54:40.090Z,6.50
2022-11-27T13:57:13.790Z,6.50
2022-11-27T13:59:41.855Z,6.50
2022-11-27T14:02:10.172Z,6.50
2022-11-27T14:04:54.368Z,6.50
2022-11-27T14:07:24.560Z,6.50
2022-11-27T14:09:53.802Z,6.50
2022-11-27T14:12:25.340Z,6.40
2022-11-27T14:15:05.106Z,6.50
2022-11-27T14:17:35.462Z,6.40
2022-11-27T14:20:05.826Z,6.40
2022-11-27T14:22:48.537Z,6.50
2022-11-27T14:25:24.798Z,6.50
2022-11-27T14:27:58.513Z,6.40
2022-11-27T14:30:28.820Z,6.50
2022-11-27T14:33:21.171Z,6.50
2022-11-27T14:35:49.942Z,6.50
2022-11-27T14:38:18.064Z,6.50
2022-11-27T14:40:46.489Z,6.50
2022-11-27T14:43:17.606Z,6.50
2022-11-27T14:45:46.544Z,6.50
2022-11-27T14:48:20.176Z,6.50
2022-11-27T14:50:48.615Z,6.50
2022-11-27T14:53:17.244Z,6.50
2022-11-27T14:55:49.212Z,6.50
2022-11-27T14:58:20.989Z,6.50
2022-11-27T15:00:52.888Z,6.50
2022-11-27T15:03:21.686Z,6.50
2022-11-27T15:05:54.354Z,6.50
2022-11-27T15:08:22.445Z,6.50
2022-11-27T15:10:53.281Z,6.50
2022-11-27T15:13:24.172Z,6.50
2022-11-27T15:15:57.968Z,6.50
2022-11-27T15:18:26.445Z,6.50
2022-11-27T15:20:55.317Z,6.50
2022-11-27T15:23:25.357Z,6.50
2022-11-27T15:26:11.010Z,6.50
2022-11-27T15:28:43.864Z,6.50
2022-11-27T15:31:29.128Z,6.50
2022-11-27T15:34:03.083Z,6.50
2022-11-27T15:36:39.414Z,6.50
2022-11-27T15:39:23.943Z,6.50
2022-11-27T15:41:56.082Z,6.50
2022-11-27T15:44:26.627Z,6.50
2022-11-27T15:46:55.396Z,6.50
2022-11-27T15:49:23.736Z,6.50
2022-11-27T15:51:54.201Z,6.50
2022-11-27T15:54:22.235Z,6.50
2022-11-27T15:56:53.550Z,6.50
2022-11-27T15:59:21.521Z,6.50
2022-11-27T16:01:51.032Z,6.50
2022-11-27T16:04:19.126Z,6.50
2022-11-27T16:06:47.243Z,6.50
2022-11-27T16:09:15.257Z,6.50
2022-11-27T16:11:43.408Z,6.50
2022-11-27T16:14:12.182Z,6.50
2022-11-27T16:16:40.555Z,6.50
2022-11-27T16:19:12.235Z,6.80
2022-11-27T16:21:40.325Z,6.50
2022-11-27T16:24:15.741Z,6.50
2022-11-27T16:26:44.886Z,6.50
2022-11-27T16:29:12.972Z,6.50
2022-11-27T16:31:41.063Z,6.50
2022-11-27T16:34:11.317Z,6.50
2022-11-27T16:36:41.147Z,6.50
2022-11-27T16:39:09.128Z,6.50
2022-11-27T16:41:37.422Z,6.50
2022-11-27T16:44:10.532Z,6.50
2022-11-27T16:46:38.950Z,6.50
2022-11-27T16:49:07.451Z,6.50
2022-11-27T16:51:38.282Z,6.50
2022-11-27T16:54:08.615Z,6.50
2022-11-27T16:56:39.672Z,6.50
2022-11-27T16:59:08.715Z,6.60
2022-11-27T17:01:37.015Z,6.50
2022-11-27T17:04:08.771Z,6.60
2022-11-27T17:06:39.263Z,6.50
2022-11-27T17:09:08.533Z,6.60
2022-11-27T17:11:37.560Z,6.60
2022-11-27T17:14:06.748Z,6.60
2022-11-27T17:16:38.825Z,6.50
2022-11-27T17:19:07.014Z,6.50
2022-11-27T17:21:35.634Z,6.60
2022-11-27T17:24:10.182Z,6.50
2022-11-27T17:26:43.483Z,6.60
2022-11-27T17:29:11.832Z,6.60
2022-11-27T17:31:42.722Z,6.70
2022-11-27T17:34:11.931Z,6.70
2022-11-27T17:36:42.060Z,6.70
2022-11-27T17:39:12.656Z,6.60
2022-11-27T17:41:40.961Z,6.60
2022-11-27T17:44:09.359Z,6.60
2022-11-27T17:46:37.426Z,6.60
2022-11-27T17:49:06.332Z,6.60
2022-11-27T17:51:38.185Z,6.60
2022-11-27T17:54:09.116Z,7.00
2022-11-27T17:56:38.644Z,6.60
2022-11-27T17:59:06.664Z,6.60
2022-11-27T18:01:34.848Z,6.60
2022-11-27T18:04:04.140Z,6.60
2022-11-27T18:06:32.834Z,6.60
2022-11-27T18:09:02.449Z,6.60
2022-11-27T18:11:31.520Z,6.60
2022-11-27T18:14:01.186Z,6.60
2022-11-27T18:16:30.343Z,6.60
2022-11-27T18:18:59.040Z,6.60
2022-11-27T18:21:28.587Z,6.60
2022-11-27T18:29:35.982Z,6.60
2022-11-27T18:32:04.136Z,6.60
2022-11-27T18:34:35.291Z,6.60
2022-11-27T18:37:05.680Z,6.60
2022-11-27T18:39:33.802Z,6.60
2022-11-27T18:42:25.555Z,6.60
2022-11-27T18:44:55.206Z,6.60
2022-11-27T18:47:23.256Z,6.60
2022-11-27T18:49:51.294Z,6.60
2022-11-27T18:52:19.315Z,6.60
2022-11-27T18:54:47.348Z,6.60
2022-11-27T18:57:15.375Z,6.60
2022-11-27T18:59:46.356Z,6.60
2022-11-27T19:02:16.227Z,6.60
2022-11-27T19:04:44.946Z,6.60
2022-11-27T19:07:13.190Z,6.60
2022-11-27T19:09:41.546Z,6.60
2022-11-27T19:12:09.940Z,6.60
2022-11-27T19:14:37.880Z,6.60
2022-11-27T19:17:05.820Z,6.60
2022-11-27T19:22:24.018Z,6.60
2022-11-27T19:24:51.995Z,6.60
2022-11-27T19:27:20.092Z,6.60
2022-11-27T19:29:49.977Z,6.50
2022-11-27T19:32:17.935Z,6.50
2022-11-27T19:34:47.575Z,6.50
2022-11-27T19:37:24.688Z,6.50
2022-11-27T19:40:01.270Z,6.50
2022-11-27T19:42:31.014Z,6.50
2022-11-27T19:44:59.111Z,6.50
2022-11-27T19:47:47.470Z,6.50
2022-11-27T19:50:16.858Z,6.80
2022-11-27T19:52:44.902Z,6.50
2022-11-27T19:55:12.914Z,6.70
2022-11-27T19:57:40.880Z,6.50
2022-11-27T20:00:09.518Z,6.50
2022-11-27T20:02:37.656Z,6.50
2022-11-27T20:05:06.495Z,6.50
2022-11-27T20:07:35.983Z,6.50
2022-11-27T20:10:04.547Z,6.60
2022-11-27T20:12:36.327Z,6.50
2022-11-27T20:15:04.362Z,6.50
2022-11-27T20:17:32.460Z,6.50
2022-11-27T20:20:00.998Z,6.50
2022-11-27T20:22:29.161Z,6.50
2022-11-27T20:25:18.475Z,6.50
2022-11-27T20:27:46.836Z,6.50
2022-11-27T20:30:14.902Z,6.50
2022-11-27T20:32:42.967Z,6.50
2022-11-27T20:35:10.925Z,6.50
2022-11-27T20:37:38.991Z,6.50
2022-11-27T20:40:09.408Z,6.50
2022-11-27T20:42:37.587Z,6.50
2022-11-27T20:45:05.990Z,6.60
2022-11-27T20:47:35.257Z,6.50
2022-11-27T20:50:03.545Z,6.50
2022-11-27T20:52:31.533Z,6.50
2022-11-27T20:54:59.506Z,6.50
2022-11-27T20:57:28.879Z,6.50
2022-11-27T20:59:57.245Z,6.50
2022-11-27T21:02:25.276Z,6.40
2022-11-27T21:04:53.246Z,6.40
2022-11-27T21:07:21.663Z,6.50
2022-11-27T21:09:49.783Z,6.50
2022-11-27T21:12:17.909Z,6.50
2022-11-27T21:14:47.284Z,6.50
2022-11-27T21:17:15.404Z,6.50
2022-11-27T21:19:43.545Z,6.50
2022-11-27T21:22:11.773Z,6.50
2022-11-27T21:24:40.035Z,6.40
2022-11-27T21:27:08.099Z,6.40
2022-11-27T21:29:36.160Z,6.50
2022-11-27T21:32:05.740Z,6.40
2022-11-27T21:34:33.773Z,6.40
2022-11-27T21:37:01.872Z,6.40
2022-11-27T21:39:30.182Z,6.40
2022-11-27T21:41:58.185Z,6.40
2022-11-27T21:44:28.174Z,6.30
2022-11-27T21:46:56.567Z,6.40
2022-11-27T21:49:25.923Z,6.40
2022-11-27T21:51:54.517Z,6.30
2022-11-27T21:54:23.172Z,6.40
2022-11-27T21:56:51.807Z,6.30
2022-11-27T21:59:19.785Z,6.30
2022-11-27T22:01:48.256Z,6.30
2022-11-27T22:04:16.527Z,6.30
2022-11-27T22:06:46.153Z,6.30
2022-11-27T22:09:16.119Z,6.30
2022-11-27T22:11:44.785Z,6.30
2022-11-27T22:14:13.178Z,6.30
2022-11-27T22:16:45.231Z,6.30
2022-11-27T22:19:19.155Z,6.30
2022-11-27T22:21:48.886Z,6.30
2022-11-27T22:24:19.638Z,6.30
2022-11-27T22:26:48.338Z,6.30
2022-11-27T22:29:16.848Z,6.30
2022-11-27T22:31:47.039Z,6.20
2022-11-27T22:34:16.232Z,6.20
2022-11-27T22:36:44.208Z,6.20
2022-11-27T22:39:13.543Z,6.20
2022-11-27T22:41:41.959Z,6.20
2022-11-27T22:44:10.501Z,6.30
2022-11-27T22:46:40.890Z,6.30
2022-11-27T22:49:09.310Z,6.20
2022-11-27T22:51:38.066Z,6.30
2022-11-27T22:54:06.864Z,6.30
2022-11-27T22:56:36.683Z,6.30
2022-11-27T22:59:31.031Z,6.20
2022-11-27T23:01:53.814Z,6.20
2022-11-27T23:04:21.823Z,6.20
2022-11-27T23:06:49.858Z,6.20
2022-11-27T23:09:18.854Z,6.20
2022-11-27T23:11:48.469Z,6.20
2022-11-27T23:14:16.439Z,6.20
2022-11-27T23:16:44.525Z,6.20
2022-11-27T23:19:12.672Z,6.20
2022-11-27T23:21:40.647Z,6.20
2022-11-27T23:24:13.432Z,6.20
2022-11-27T23:27:01.061Z,6.30
2022-11-27T23:29:32.022Z,6.20
2022-11-27T23:32:02.058Z,6.30
2022-11-27T23:34:30.131Z,6.30
2022-11-27T23:36:58.086Z,6.20
2022-11-27T23:39:31.582Z,6.20
2022-11-27T23:42:00.976Z,6.20
2022-11-27T23:44:28.928Z,6.20
2022-11-27T23:46:56.944Z,6.20
2022-11-27T23:49:24.909Z,6.20
2022-11-27T23:51:52.912Z,6.20
2022-11-27T23:54:20.836Z,6.20
2022-11-27T23:56:51.543Z,6.20
2022-11-27T23:59:20.849Z,6.20
